Hat Yai, Thailand

9:45 AM ICT on July 24, 2014 (GMT +0700)
Hat Yai International (VTSS) Elev 89 ft | 6.93 °N, 100.39 °E | Change Station

Current weather conditions updated 15 minutes ago

Mostly Cloudy
Mostly Cloudy
88 °F
Feels Like 100 °F
N
5
Wind Variable Wind from WSW

Today is forecast to be Cooler than yesterday.

Today
High -- | Low -- °F
--% Chance of Precip.
Yesterday
High -- | Low -- °F
Precip. -- in
6:11 AM 6:38 PM
Waning Crescent, 7% visible
Pressure 29.83 in
Visibility 5.0 miles
Clouds Few 2000 ft
Mostly Cloudy 30000 ft
Heat Index 100 °F
Dew Point 77 °F
Humidity 70%
Rainfall 0.00 in
Snow Depth Not available.
UV 5 out of 12
Pollen Not available.
Air Quality Not available.
Flu Activity Not available.
METAR VTSS 240230Z 25004KT 8000 FEW020 BKN300 31/25 Q1010 A2983 NOSIG

More Conditions Fewer Conditions

Pressure 29.83 in
Visibility 5.0 miles
Clouds Few 2000 ft
Mostly Cloudy 30000 ft
Heat Index 100 °F
Dew Point 77 °F
Humidity 70%
Rainfall 0.00 in
Snow Depth Not available.
UV 5 out of 12
Pollen Not available.
Air Quality Not available.
Flu Activity Not available.
METAR VTSS 240230Z 25004KT 8000 FEW020 BKN300 31/25 Q1010 A2983 NOSIG

More Conditions Fewer Conditions

10-Day Weather Forecast

Almanac

Astronomy

Jul. 24, 2014 Rise Set
Actual Time 6:11 AM ICT 6:38 PM ICT
Civil Twilight 5:48 AM ICT 7:00 PM ICT
Nautical Twilight 5:22 AM ICT 7:26 PM ICT
Astronomical Twilight 4:56 AM ICT 7:52 PM ICT
Moon 3:49 AM ICT 4:33 PM ICT
Length of Visible Light 13h 11m
Length of Day
12h 27m
Tomorrow will be 0m 14s shorter.
Waning Crescent, 7% of the Moon is Illuminated
Jul 23
Waning Crescent
Jul 26
New
Aug 3
First Quarter
Aug 10
Full
Aug 17
Last Quarter

Yesterday's Extremes

Country Highs Country Lows

Community

WunderPhotos

Upload Photos

1,736,864 photos uploaded!

Nearby

Snow Depth

Not available.

Earthquake Activity

City Distance Mag. Time & Date
No recent earthquake activity has been reported nearby.
Minimum magnitude displayed is 2.5.

Coastal Water Temperatures

Place Temperature
No Stations Reporting

Nearby Weather Stations

There are no personal weather stations in this area.